Time;durP1;ratioP1;P1;durP2;ratioP2;P2;SDS_P1;SDS_P2;PMS_P1;PMS_P2;Temp;Humidity;BMP_temperature;BMP_pressure;BME280_temperature;BME280_humidity;BME280_pressure;Samples;Min_cycle;Max_cycle;Signal;HPM_P1;HPM_P2
2023/06/21 00:01:00;;;;;;;7.85;5.60;;;;;;;15.00;100.00;93384.44;5104176;28;20043;-72
2023/06/21 00:03:27;;;;;;;7.78;5.88;;;;;;;15.01;100.00;93384.22;5104579;28;20068;-72
2023/06/21 00:05:54;;;;;;;8.35;5.65;;;;;;;15.03;100.00;93381.38;5093908;28;20036;-72
2023/06/21 00:08:21;;;;;;;6.95;5.07;;;;;;;15.02;100.00;93378.03;5109454;28;20047;-72
2023/06/21 00:10:50;;;;;;;7.05;5.15;;;;;;;15.04;100.00;93381.16;5108743;28;20088;-72
2023/06/21 00:13:16;;;;;;;7.97;5.70;;;;;;;15.01;100.00;93379.06;5103562;28;20559;-72
2023/06/21 00:15:43;;;;;;;7.00;5.18;;;;;;;15.04;100.00;93377.81;5081927;28;20390;-72
2023/06/21 00:18:10;;;;;;;7.50;5.00;;;;;;;15.02;100.00;93378.03;5099438;28;20039;-72
2023/06/21 00:20:37;;;;;;;7.57;5.10;;;;;;;14.99;100.00;93380.31;5101653;28;20097;-72
2023/06/21 00:23:04;;;;;;;7.45;4.93;;;;;;;14.95;100.00;93382.56;5099880;28;20420;-72
2023/06/21 00:25:30;;;;;;;6.70;4.90;;;;;;;14.91;100.00;93379.63;5109117;28;20048;-72
2023/06/21 00:27:58;;;;;;;7.85;4.78;;;;;;;14.87;100.00;93378.56;5108703;28;20489;-72
2023/06/21 00:30:25;;;;;;;8.15;5.10;;;;;;;14.81;100.00;93374.28;5096264;28;20489;-72
2023/06/21 00:32:52;;;;;;;6.75;5.15;;;;;;;14.76;100.00;93374.22;5092260;28;20039;-72
2023/06/21 00:35:18;;;;;;;7.15;5.25;;;;;;;14.71;100.00;93369.69;5088281;28;20070;-72
2023/06/21 00:37:45;;;;;;;7.30;5.05;;;;;;;14.66;100.00;93375.56;5095969;28;20459;-72
2023/06/21 00:40:12;;;;;;;7.78;5.13;;;;;;;14.67;100.00;93376.34;5104368;28;20057;-72
2023/06/21 00:42:40;;;;;;;7.32;5.15;;;;;;;14.46;100.00;93339.00;5074048;28;20048;-72
2023/06/21 00:45:15;;;;;;;6.35;5.05;;;;;;;14.65;100.00;93370.63;5086026;28;20048;-72
2023/06/21 00:47:42;;;;;;;6.85;5.57;;;;;;;14.64;100.00;93372.44;5097028;28;20047;-72
2023/06/21 00:50:09;;;;;;;7.88;5.28;;;;;;;14.60;100.00;93376.50;5081775;28;20184;-72
2023/06/21 00:52:38;;;;;;;8.27;6.13;;;;;;;14.60;100.00;93368.72;5092297;28;20117;-72
2023/06/21 00:55:05;;;;;;;9.45;6.05;;;;;;;14.57;100.00;93371.75;5103586;28;20086;-72
2023/06/21 00:57:33;;;;;;;8.18;5.97;;;;;;;14.56;100.00;93370.19;5108384;28;20044;-72
2023/06/21 01:00:00;;;;;;;7.85;5.53;;;;;;;14.55;100.00;93374.56;5076744;28;20044;-72
2023/06/21 01:02:28;;;;;;;7.13;5.03;;;;;;;14.53;100.00;93368.06;5095146;28;20048;-72
2023/06/21 01:04:55;;;;;;;7.70;5.00;;;;;;;14.53;100.00;93376.63;5085775;28;20106;-72
2023/06/21 01:07:28;;;;;;;7.93;5.60;;;;;;;14.52;100.00;93375.06;5079899;28;20491;-72
2023/06/21 01:10:12;;;;;;;9.38;5.72;;;;;;;14.51;100.00;93372.69;5094497;28;20052;-71
2023/06/21 01:12:53;;;;;;;7.68;5.22;;;;;;;14.46;100.00;93370.81;5086489;28;20054;-72
2023/06/21 01:15:24;;;;;;;8.45;5.05;;;;;;;14.31;100.00;93350.63;5096785;28;20043;-72
2023/06/21 01:17:54;;;;;;;9.02;6.00;;;;;;;14.37;100.00;93367.00;5099935;28;20455;-72
2023/06/21 01:20:29;;;;;;;8.15;6.10;;;;;;;14.38;100.00;93369.34;5088902;28;20035;-72
2023/06/21 01:23:09;;;;;;;7.70;5.82;;;;;;;14.35;100.00;93374.97;5107486;28;20055;-71
2023/06/21 01:26:07;;;;;;;12.48;6.13;;;;;;;14.21;100.00;93358.94;5102248;28;20055;-71
2023/06/21 01:28:47;;;;;;;8.93;5.75;;;;;;;14.27;100.00;93365.00;5088979;28;20048;-72
2023/06/21 01:31:16;;;;;;;8.25;5.70;;;;;;;14.28;100.00;93362.19;5102518;28;20044;-72
2023/06/21 01:33:45;;;;;;;7.47;5.97;;;;;;;14.30;100.00;93369.69;5107665;28;20040;-71
2023/06/21 01:36:11;;;;;;;8.10;5.63;;;;;;;14.25;100.00;93360.06;5093231;28;20048;-72
2023/06/21 01:38:38;;;;;;;7.95;5.38;;;;;;;14.33;100.00;93376.22;5106127;28;20042;-72
2023/06/21 01:41:06;;;;;;;9.02;5.57;;;;;;;14.35;100.00;93381.97;5098336;28;20056;-71
2023/06/21 01:43:33;;;;;;;7.30;5.18;;;;;;;14.33;100.00;93376.22;5095207;28;20132;-72
2023/06/21 01:46:02;;;;;;;9.30;6.30;;;;;;;14.28;100.00;93380.28;5079707;28;20048;-72
2023/06/21 01:48:33;;;;;;;9.25;5.47;;;;;;;14.26;100.00;93379.72;5101255;28;20045;-72
2023/06/21 01:51:02;;;;;;;8.18;5.72;;;;;;;14.13;100.00;93369.63;5091959;28;20130;-72
2023/06/21 01:53:31;;;;;;;9.07;6.15;;;;;;;14.10;100.00;93363.13;5089725;28;20098;-72
2023/06/21 01:56:00;;;;;;;8.65;5.93;;;;;;;14.12;100.00;93379.19;5086962;28;20151;-71
2023/06/21 01:58:26;;;;;;;10.68;6.57;;;;;;;14.15;100.00;93375.34;5107402;28;20048;-72
2023/06/21 02:00:54;;;;;;;8.75;5.95;;;;;;;14.12;100.00;93370.66;5099391;28;20098;-71
2023/06/21 02:03:23;;;;;;;14.30;5.72;;;;;;;14.11;100.00;93375.03;5081587;28;20044;-72
2023/06/21 02:05:51;;;;;;;7.15;5.60;;;;;;;14.10;100.00;93368.28;5107386;28;20040;-71
2023/06/21 02:08:19;;;;;;;7.75;5.68;;;;;;;14.10;100.00;93355.38;5107396;28;20039;-71
2023/06/21 02:10:46;;;;;;;6.38;5.15;;;;;;;14.12;100.00;93374.00;5081673;28;20047;-71
2023/06/21 02:13:14;;;;;;;7.72;5.30;;;;;;;14.07;100.00;93368.75;5091567;28;20044;-71
2023/06/21 02:15:42;;;;;;;7.78;5.55;;;;;;;14.05;100.00;93380.31;5108043;28;20062;-72
2023/06/21 02:18:09;;;;;;;8.15;5.18;;;;;;;14.02;100.00;93381.53;5107787;28;20067;-71
2023/06/21 02:20:37;;;;;;;8.38;5.78;;;;;;;13.98;100.00;93386.38;5097262;28;20137;-72
2023/06/21 02:23:06;;;;;;;11.35;5.82;;;;;;;13.97;100.00;93384.00;5094979;28;20394;-71
2023/06/21 02:25:35;;;;;;;8.63;5.90;;;;;;;13.96;100.00;93377.28;5107662;28;20472;-72
2023/06/21 02:28:02;;;;;;;8.35;6.00;;;;;;;13.90;100.00;93373.81;5093050;28;20055;-71
2023/06/21 02:30:29;;;;;;;7.90;5.65;;;;;;;13.84;100.00;93383.25;5101786;28;20421;-71
2023/06/21 02:32:56;;;;;;;7.63;5.72;;;;;;;13.80;100.00;93376.94;5108966;28;20647;-71
2023/06/21 02:35:22;;;;;;;8.30;6.07;;;;;;;13.82;100.00;93384.47;5094279;28;20143;-71
2023/06/21 02:37:49;;;;;;;7.93;5.38;;;;;;;13.81;100.00;93386.28;5098083;28;20100;-72
2023/06/21 02:40:17;;;;;;;8.90;6.07;;;;;;;13.80;100.00;93386.50;5093863;28;20097;-71
2023/06/21 02:42:44;;;;;;;8.40;6.07;;;;;;;13.71;100.00;93375.75;5093547;28;20059;-74
2023/06/21 02:45:11;;;;;;;7.88;6.00;;;;;;;13.74;100.00;93394.16;5097772;28;20044;-75
2023/06/21 02:47:38;;;;;;;9.88;5.80;;;;;;;13.78;100.00;93398.88;5093802;28;20142;-72
2023/06/21 02:50:06;;;;;;;8.10;5.93;;;;;;;13.69;100.00;93383.69;5105124;28;20052;-71
2023/06/21 02:52:33;;;;;;;10.10;5.82;;;;;;;13.61;100.00;93384.03;5089812;28;20036;-72
2023/06/21 02:54:59;;;;;;;7.90;5.40;;;;;;;13.78;100.00;93407.38;5098100;28;20513;-72
2023/06/21 02:57:27;;;;;;;8.73;6.38;;;;;;;13.77;100.00;93405.81;5100147;28;20081;-71
2023/06/21 02:59:59;;;;;;;8.90;6.47;;;;;;;13.80;100.00;93412.34;5082396;28;20054;-72
2023/06/21 03:02:32;;;;;;;9.38;6.28;;;;;;;13.75;100.00;93405.25;5110183;28;20043;-72
2023/06/21 03:04:59;;;;;;;7.97;5.80;;;;;;;13.75;100.00;93406.03;5110698;28;20051;-72
2023/06/21 03:07:26;;;;;;;11.10;6.43;;;;;;;13.74;100.00;93406.25;5092622;28;20505;-72
2023/06/21 03:09:53;;;;;;;8.98;5.90;;;;;;;13.73;100.00;93415.81;5102403;28;20040;-71
2023/06/21 03:12:20;;;;;;;9.70;5.95;;;;;;;13.69;100.00;93401.78;5077382;28;20051;-71
2023/06/21 03:14:48;;;;;;;8.45;5.75;;;;;;;13.69;100.00;93403.56;5085171;28;20051;-71
2023/06/21 03:17:14;;;;;;;8.15;6.07;;;;;;;13.73;100.00;93420.19;5084643;28;20081;-71
2023/06/21 03:19:41;;;;;;;11.68;6.93;;;;;;;13.71;100.00;93409.28;5098660;28;20048;-72
2023/06/21 03:22:08;;;;;;;8.00;5.85;;;;;;;13.75;100.00;93418.94;5110333;28;20073;-72
2023/06/21 03:24:35;;;;;;;9.10;5.40;;;;;;;13.77;100.00;93426.47;5090416;28;20097;-72
2023/06/21 03:27:02;;;;;;;8.27;6.10;;;;;;;13.76;100.00;93412.75;5100906;28;20097;-72
2023/06/21 03:29:29;;;;;;;12.07;6.13;;;;;;;13.78;100.00;93416.94;5110085;28;20043;-72
2023/06/21 03:31:57;;;;;;;8.20;6.38;;;;;;;13.79;100.00;93416.69;5096240;28;20100;-72
2023/06/21 03:34:24;;;;;;;12.68;7.70;;;;;;;13.80;100.00;93413.09;5097831;28;20039;-71
2023/06/21 03:36:53;;;;;;;15.13;7.10;;;;;;;13.82;100.00;93418.03;5094566;28;20494;-71
2023/06/21 03:39:19;;;;;;;13.82;6.65;;;;;;;13.88;100.00;93428.28;5110332;28;20158;-72
2023/06/21 03:41:46;;;;;;;13.57;7.82;;;;;;;13.90;100.00;93425.47;5109794;28;20609;-71
2023/06/21 03:44:13;;;;;;;9.75;6.82;;;;;;;13.92;100.00;93422.66;5097255;28;20048;-72
2023/06/21 03:46:40;;;;;;;10.10;6.85;;;;;;;13.94;100.00;93428.38;5102794;28;20478;-72
2023/06/21 03:49:08;;;;;;;9.05;6.10;;;;;;;13.98;100.00;93426.94;5104046;28;20130;-72
2023/06/21 03:51:35;;;;;;;10.30;6.80;;;;;;;14.01;100.00;93424.69;5083921;28;20052;-72
2023/06/21 03:54:01;;;;;;;11.98;6.28;;;;;;;14.02;100.00;93421.09;5096489;28;20971;-72
2023/06/21 03:56:28;;;;;;;10.98;6.63;;;;;;;14.07;100.00;93428.16;5089699;28;20443;-72
2023/06/21 03:58:55;;;;;;;9.13;6.22;;;;;;;14.10;100.00;93426.91;5083848;28;20057;-71
2023/06/21 04:01:22;;;;;;;10.75;7.07;;;;;;;14.12;100.00;93422.31;5086921;28;20094;-72
2023/06/21 04:03:49;;;;;;;9.23;6.40;;;;;;;14.21;100.00;93433.88;5098483;28;20047;-71
2023/06/21 04:06:17;;;;;;;7.47;6.35;;;;;;;14.27;100.00;93435.53;5109714;28;20051;-71
2023/06/21 04:08:44;;;;;;;8.13;6.05;;;;;;;14.36;100.00;93432.63;5090097;28;20055;-72
2023/06/21 04:11:11;;;;;;;9.02;7.15;;;;;;;14.43;100.00;93426.31;5094728;28;20108;-71
2023/06/21 04:13:37;;;;;;;7.55;6.15;;;;;;;14.55;100.00;93428.84;5083538;28;20182;-71
2023/06/21 04:16:04;;;;;;;10.02;7.45;;;;;;;14.67;100.00;93434.00;5109851;28;20051;-71
2023/06/21 04:18:31;;;;;;;12.35;7.80;;;;;;;14.73;100.00;93434.91;5109792;28;20530;-71
2023/06/21 04:20:58;;;;;;;9.98;7.32;;;;;;;14.76;100.00;93444.03;5107196;28;20047;-71
2023/06/21 04:23:26;;;;;;;10.45;7.65;;;;;;;14.79;100.00;93440.97;5084922;28;20048;-71
2023/06/21 04:25:53;;;;;;;11.60;6.72;;;;;;;14.83;100.00;93447.25;5099922;28;20054;-71
2023/06/21 04:28:25;;;;;;;10.77;7.82;;;;;;;14.85;100.00;93434.88;5087855;28;20048;-71
2023/06/21 04:30:52;;;;;;;11.25;7.57;;;;;;;15.01;100.00;93453.28;5107481;28;20409;-71
2023/06/21 04:33:19;;;;;;;12.02;7.20;;;;;;;15.08;100.00;93448.75;5108556;28;20563;-71
2023/06/21 04:35:45;;;;;;;14.18;7.25;;;;;;;15.12;100.00;93447.25;5096435;28;20109;-71
2023/06/21 04:38:12;;;;;;;11.48;7.88;;;;;;;15.15;100.00;93448.59;5099807;28;20047;-71
2023/06/21 04:40:41;;;;;;;10.93;7.28;;;;;;;15.19;100.00;93447.91;5108338;28;20120;-71
2023/06/21 04:43:08;;;;;;;10.73;7.53;;;;;;;15.17;100.00;93444.78;5086355;28;20052;-71
2023/06/21 04:45:35;;;;;;;11.32;7.63;;;;;;;15.27;100.00;93451.91;5092467;28;20047;-72
2023/06/21 04:48:04;;;;;;;11.63;8.18;;;;;;;15.32;100.00;93448.66;5108789;28;20047;-72
2023/06/21 04:50:31;;;;;;;9.80;7.32;;;;;;;15.33;100.00;93450.22;5108423;28;20071;-71
2023/06/21 04:52:59;;;;;;;14.82;8.88;;;;;;;15.34;100.00;93450.00;5085922;28;20040;-72
2023/06/21 04:55:26;;;;;;;12.10;7.47;;;;;;;15.39;100.00;93451.88;5106206;28;20090;-71
2023/06/21 04:57:55;;;;;;;13.45;8.13;;;;;;;15.52;100.00;93448.19;5108526;28;20462;-71
2023/06/21 05:00:22;;;;;;;11.43;8.20;;;;;;;15.67;100.00;93446.84;5096737;28;20040;-71
2023/06/21 05:02:48;;;;;;;12.00;7.43;;;;;;;15.60;100.00;93421.16;5084326;28;20470;-72
2023/06/21 05:05:15;;;;;;;12.65;7.05;;;;;;;15.90;100.00;93451.91;5089850;28;20055;-71
2023/06/21 05:07:42;;;;;;;13.27;8.75;;;;;;;16.02;100.00;93451.06;5104026;28;20404;-72
2023/06/21 05:10:10;;;;;;;12.07;8.82;;;;;;;16.06;100.00;93439.19;5092327;28;20052;-72
2023/06/21 05:12:37;;;;;;;14.73;9.73;;;;;;;16.16;100.00;93441.16;5106086;28;20044;-71
2023/06/21 05:15:06;;;;;;;13.95;8.93;;;;;;;16.25;100.00;93442.28;5093861;28;20055;-72
2023/06/21 05:17:33;;;;;;;15.80;9.15;;;;;;;16.39;100.00;93444.56;5083479;28;20501;-72
2023/06/21 05:20:00;;;;;;;14.63;8.32;;;;;;;16.43;100.00;93440.44;5099287;28;20494;-72
2023/06/21 05:22:26;;;;;;;13.82;8.88;;;;;;;16.51;100.00;93450.41;5092999;28;20081;-72
2023/06/21 05:24:53;;;;;;;17.65;9.88;;;;;;;16.63;100.00;93452.09;5107716;28;20085;-72
2023/06/21 05:27:20;;;;;;;13.95;8.73;;;;;;;16.80;100.00;93452.81;5091723;28;20119;-72
2023/06/21 05:29:47;;;;;;;16.77;9.75;;;;;;;17.00;100.00;93454.06;5103221;28;20044;-72
2023/06/21 05:32:15;;;;;;;20.08;11.55;;;;;;;17.10;100.00;93443.03;5107977;28;20040;-73
2023/06/21 05:34:41;;;;;;;17.17;9.50;;;;;;;17.27;100.00;93444.75;5094292;28;20052;-72
2023/06/21 05:37:08;;;;;;;15.10;9.48;;;;;;;17.48;100.00;93456.91;5085422;28;20048;-73
2023/06/21 05:39:35;;;;;;;12.93;8.70;;;;;;;17.69;100.00;93457.06;5101732;28;20048;-73
2023/06/21 05:42:01;;;;;;;13.13;9.00;;;;;;;17.84;100.00;93450.41;5101950;28;20048;-73
2023/06/21 05:44:28;;;;;;;13.02;8.02;;;;;;;18.00;100.00;93427.91;5086184;28;20432;-73
2023/06/21 05:46:55;;;;;;;13.88;9.73;;;;;;;18.14;100.00;93444.66;5107530;28;20461;-73
2023/06/21 05:49:23;;;;;;;14.10;8.70;;;;;;;17.99;100.00;93424.53;5107664;28;20105;-73
2023/06/21 05:51:50;;;;;;;12.93;8.02;;;;;;;18.18;100.00;93433.78;5102817;28;20039;-73
2023/06/21 05:54:16;;;;;;;13.77;8.00;;;;;;;18.48;100.00;93435.75;5090851;28;20092;-73
2023/06/21 05:56:43;;;;;;;12.73;7.57;;;;;;;18.81;100.00;93425.22;5107407;28;20088;-73
2023/06/21 05:59:10;;;;;;;13.45;7.90;;;;;;;19.05;100.00;93432.59;5107401;28;20470;-73
2023/06/21 06:01:37;;;;;;;14.02;7.45;;;;;;;19.28;100.00;93433.16;5100622;28;20098;-73
2023/06/21 06:04:04;;;;;;;16.52;8.38;;;;;;;19.49;100.00;93424.31;5086957;28;20055;-74
2023/06/21 06:06:38;;;;;;;13.00;7.35;;;;;;;19.81;100.00;93430.31;5101037;28;20113;-74
2023/06/21 06:09:05;;;;;;;16.13;7.95;;;;;;;20.20;100.00;93433.41;5094391;28;20046;-74
2023/06/21 06:11:32;;;;;;;11.45;7.32;;;;;;;20.38;100.00;93440.69;5111830;28;20043;-74
2023/06/21 06:13:58;;;;;;;13.70;7.47;;;;;;;20.68;100.00;93428.59;5111351;28;20039;-74
2023/06/21 06:16:25;;;;;;;12.70;7.68;;;;;;;21.12;100.00;93435.97;5095093;28;20494;-74
2023/06/21 06:18:52;;;;;;;14.27;7.10;;;;;;;21.38;98.70;93443.66;5103511;28;20036;-74
2023/06/21 06:21:21;;;;;;;12.30;6.85;;;;;;;21.49;100.00;93440.69;5083797;28;20044;-74
2023/06/21 06:23:51;;;;;;;10.10;6.78;;;;;;;21.54;99.44;93436.50;5091124;28;20484;-74
2023/06/21 06:26:21;;;;;;;12.20;6.93;;;;;;;21.84;96.97;93439.97;5090908;28;20052;-74
2023/06/21 06:28:48;;;;;;;14.93;6.40;;;;;;;22.26;97.66;93432.53;5085640;28;20046;-74
2023/06/21 06:31:14;;;;;;;13.75;6.55;;;;;;;22.37;87.33;93439.22;5083557;28;20048;-74
2023/06/21 06:33:41;;;;;;;12.18;6.45;;;;;;;22.75;86.12;93435.13;5098591;28;20443;-74
2023/06/21 06:36:08;;;;;;;8.60;5.53;;;;;;;23.00;82.79;93428.03;5101287;28;20497;-74
2023/06/21 06:38:34;;;;;;;12.30;5.90;;;;;;;23.33;86.04;93423.66;5106117;28;20043;-74
2023/06/21 06:41:02;;;;;;;10.07;5.90;;;;;;;22.99;83.86;93429.88;5093251;28;20052;-74
2023/06/21 06:43:29;;;;;;;9.68;6.20;;;;;;;23.09;84.16;93431.56;5109563;28;20044;-74
2023/06/21 06:45:56;;;;;;;9.85;5.85;;;;;;;23.36;85.18;93419.69;5084507;28;20057;-74
2023/06/21 06:48:23;;;;;;;10.60;6.03;;;;;;;23.78;83.22;93432.19;5106863;28;20051;-74
2023/06/21 06:50:50;;;;;;;9.82;5.63;;;;;;;23.57;83.30;93435.13;5081635;28;20052;-74
2023/06/21 06:53:17;;;;;;;9.68;5.35;;;;;;;23.57;81.99;93432.50;5098164;28;20048;-74
2023/06/21 06:55:44;;;;;;;9.75;6.40;;;;;;;23.86;80.14;93434.16;5089495;28;20105;-74
2023/06/21 06:58:12;;;;;;;9.85;5.55;;;;;;;24.12;79.72;93437.13;5098301;28;20043;-74
2023/06/21 07:00:39;;;;;;;7.60;5.35;;;;;;;24.11;78.00;93435.59;5110006;28;20126;-74
2023/06/21 07:03:05;;;;;;;8.77;5.15;;;;;;;23.84;75.07;93438.91;5105219;28;20063;-74
2023/06/21 07:05:35;;;;;;;8.75;5.15;;;;;;;23.33;76.17;93439.38;5090076;28;20541;-74
2023/06/21 07:08:03;;;;;;;10.45;5.38;;;;;;;23.65;76.33;93436.31;5096375;28;20421;-74
2023/06/21 07:10:30;;;;;;;7.60;4.78;;;;;;;24.03;74.34;93431.75;5110345;28;20055;-74
2023/06/21 07:12:59;;;;;;;9.38;5.78;;;;;;;24.32;76.26;93432.59;5110021;28;20043;-74
2023/06/21 07:15:27;;;;;;;9.88;5.38;;;;;;;24.66;72.33;93439.31;5090396;28;20048;-75
2023/06/21 07:17:54;;;;;;;10.50;5.28;;;;;;;25.08;74.14;93439.28;5100304;28;20044;-74
2023/06/21 07:20:21;;;;;;;11.05;5.78;;;;;;;25.23;68.33;93437.44;5109256;28;20047;-74
2023/06/21 07:22:48;;;;;;;18.67;6.65;;;;;;;24.84;69.54;93434.28;5110363;28;20039;-74
2023/06/21 07:25:15;;;;;;;14.15;6.85;;;;;;;25.21;73.19;93429.81;5093486;28;20047;-74
2023/06/21 07:27:42;;;;;;;16.33;7.07;;;;;;;25.72;70.49;93428.97;5106531;28;20054;-74
2023/06/21 07:30:10;;;;;;;20.58;6.78;;;;;;;26.19;68.38;93425.22;5092162;28;20088;-74
2023/06/21 07:32:38;;;;;;;16.20;7.03;;;;;;;26.35;64.52;93434.31;5102573;28;20574;-74
2023/06/21 07:35:05;;;;;;;17.83;6.72;;;;;;;26.61;67.30;93425.72;5084541;28;20554;-74
2023/06/21 07:37:33;;;;;;;15.85;6.75;;;;;;;26.66;67.71;93422.94;5105764;28;20100;-74
2023/06/21 07:40:00;;;;;;;10.60;5.18;;;;;;;27.10;64.09;93427.53;5091143;28;20054;-75
2023/06/21 07:42:27;;;;;;;16.13;6.20;;;;;;;26.32;65.11;93427.00;5109584;28;20093;-75
2023/06/21 07:44:54;;;;;;;18.65;8.15;;;;;;;26.44;65.54;93423.81;5088956;28;20127;-75
2023/06/21 07:47:22;;;;;;;14.02;5.93;;;;;;;26.67;65.16;93421.84;5089297;28;20052;-75
2023/06/21 07:49:50;;;;;;;15.82;5.47;;;;;;;26.84;63.22;93407.16;5094525;28;20466;-75
2023/06/21 07:52:17;;;;;;;11.88;5.40;;;;;;;27.16;66.32;93401.81;5085357;28;20106;-75
2023/06/21 07:54:47;;;;;;;12.82;5.35;;;;;;;26.97;63.60;93416.03;5093365;28;20051;-75
2023/06/21 07:57:14;;;;;;;8.05;4.70;;;;;;;26.62;63.04;93421.22;5095218;28;20048;-75
2023/06/21 07:59:41;;;;;;;12.45;5.82;;;;;;;27.08;67.42;93417.31;5108920;28;20039;-75
2023/06/21 08:02:08;;;;;;;11.38;6.72;;;;;;;27.65;66.18;93412.22;5089240;28;20044;-75
2023/06/21 08:04:37;;;;;;;10.27;5.40;;;;;;;27.63;61.11;93387.22;5100749;28;20048;-75
2023/06/21 08:07:06;;;;;;;8.25;4.85;;;;;;;27.04;62.65;93429.53;5091254;28;20051;-75
2023/06/21 08:09:33;;;;;;;9.63;5.85;;;;;;;27.56;64.35;93406.13;5091261;28;20055;-75
2023/06/21 08:12:00;;;;;;;10.55;4.70;;;;;;;27.56;59.99;93412.19;5095504;28;20411;-75
2023/06/21 08:14:27;;;;;;;7.55;4.07;;;;;;;27.44;63.42;93412.06;5106397;28;20044;-75
2023/06/21 08:16:54;;;;;;;7.78;4.57;;;;;;;27.07;62.31;93413.13;5086012;28;20044;-75
2023/06/21 08:19:21;;;;;;;11.57;5.05;;;;;;;27.49;62.84;93417.16;5101990;28;20051;-75
2023/06/21 08:21:48;;;;;;;7.80;4.00;;;;;;;27.89;63.85;93416.19;5108796;28;20527;-75
2023/06/21 08:24:16;;;;;;;9.15;5.07;;;;;;;27.38;61.92;93421.19;5085997;28;20048;-75
2023/06/21 08:26:42;;;;;;;9.43;4.55;;;;;;;27.07;63.08;93425.50;5103714;28;20954;-75
2023/06/21 08:29:09;;;;;;;9.80;5.85;;;;;;;27.75;62.78;93408.47;5102342;28;20098;-76
2023/06/21 08:31:36;;;;;;;9.82;5.30;;;;;;;28.36;65.46;93407.53;5086865;28;20074;-76
2023/06/21 08:34:02;;;;;;;11.25;4.80;;;;;;;28.97;62.45;93416.25;5096884;28;20104;-76
2023/06/21 08:36:29;;;;;;;7.68;5.28;;;;;;;29.28;61.09;93422.25;5108345;28;20464;-76
2023/06/21 08:38:56;;;;;;;7.82;4.63;;;;;;;29.46;56.57;93422.91;5108525;28;20426;-75
2023/06/21 08:41:26;;;;;;;8.55;4.43;;;;;;;30.02;55.91;93421.78;5091368;28;20063;-76
2023/06/21 08:43:53;;;;;;;5.72;3.78;;;;;;;30.10;55.20;93418.31;5091754;28;20048;-76
2023/06/21 08:46:25;;;;;;;8.27;3.60;;;;;;;30.11;52.66;93419.06;5104341;28;20493;-76
2023/06/21 08:48:57;;;;;;;8.60;5.75;;;;;;;30.01;52.19;93407.00;5108442;28;20458;-77
2023/06/21 08:51:26;;;;;;;10.77;4.97;;;;;;;29.99;54.78;93415.28;5090518;28;20039;-77
2023/06/21 08:53:59;;;;;;;9.80;5.00;;;;;;;30.02;55.97;93407.78;5101955;28;20047;-76
2023/06/21 08:56:30;;;;;;;5.65;3.60;;;;;;;29.98;52.54;93403.13;5092484;28;20552;-76
2023/06/21 08:59:03;;;;;;;8.70;4.95;;;;;;;30.46;55.35;93386.09;5102677;28;20497;-76
2023/06/21 09:01:33;;;;;;;9.10;4.43;;;;;;;30.79;49.52;93401.88;5101232;28;20070;-76
2023/06/21 09:04:04;;;;;;;8.77;5.32;;;;;;;30.16;50.07;93396.91;5094574;28;20040;-76
2023/06/21 09:06:31;;;;;;;5.97;3.63;;;;;;;28.99;48.91;93410.66;5108059;28;20104;-76
2023/06/21 09:08:58;;;;;;;5.75;3.65;;;;;;;28.18;49.47;93404.16;5100857;28;20052;-76
2023/06/21 09:11:27;;;;;;;5.25;3.60;;;;;;;28.75;52.46;93391.66;5084636;28;20452;-76
2023/06/21 09:13:55;;;;;;;7.97;4.03;;;;;;;29.12;49.29;93408.84;5105245;28;20497;-76
2023/06/21 09:16:24;;;;;;;5.45;3.90;;;;;;;29.36;54.17;93391.53;5108202;28;20089;-76
2023/06/21 09:18:51;;;;;;;5.38;3.33;;;;;;;29.96;50.46;93393.97;5091520;28;20093;-76
2023/06/21 09:21:19;;;;;;;8.30;4.00;;;;;;;29.90;49.61;93397.94;5102911;28;20054;-76
2023/06/21 09:23:46;;;;;;;5.70;3.55;;;;;;;30.08;48.84;93393.97;5107508;28;20046;-77
2023/06/21 09:26:13;;;;;;;6.93;3.75;;;;;;;30.02;52.21;93399.84;5103279;28;20048;-76
2023/06/21 09:28:43;;;;;;;7.47;3.88;;;;;;;30.13;49.11;93382.44;5090603;28;20048;-76
2023/06/21 09:31:10;;;;;;;9.35;4.30;;;;;;;30.56;49.70;93398.91;5085187;28;20044;-77
2023/06/21 09:33:37;;;;;;;8.35;4.20;;;;;;;30.13;49.12;93393.81;5106259;28;20459;-76
2023/06/21 09:36:05;;;;;;;6.07;3.72;;;;;;;30.14;49.85;93398.00;5093495;28;20044;-76
2023/06/21 09:38:35;;;;;;;5.93;3.85;;;;;;;30.52;50.63;93405.97;5105308;28;20047;-76
2023/06/21 09:41:02;;;;;;;7.78;3.97;;;;;;;31.00;50.63;93394.91;5107386;28;20055;-76
2023/06/21 09:43:29;;;;;;;6.95;3.50;;;;;;;31.26;46.66;93397.16;5094584;28;20056;-77
2023/06/21 09:46:03;;;;;;;6.95;4.53;;;;;;;31.57;47.15;93400.28;5097513;28;20052;-76
2023/06/21 09:48:32;;;;;;;8.98;4.45;;;;;;;31.75;49.04;93399.97;5090821;28;20512;-76
2023/06/21 09:51:02;;;;;;;8.20;4.10;;;;;;;31.61;45.20;93398.50;5080662;28;21532;-76
2023/06/21 09:53:29;;;;;;;5.95;4.03;;;;;;;30.64;46.33;93405.22;5082388;28;20358;-76
2023/06/21 09:55:57;;;;;;;7.15;4.68;;;;;;;28.83;49.69;93400.59;5103614;28;20048;-76
2023/06/21 09:58:24;;;;;;;6.68;4.68;;;;;;;29.06;52.42;93401.09;5087220;28;20166;-76
2023/06/21 10:00:51;;;;;;;6.10;4.10;;;;;;;28.85;51.64;93410.84;5091550;28;20044;-76
2023/06/21 10:03:23;;;;;;;5.72;4.13;;;;;;;28.87;49.89;93406.84;5085438;28;20094;-77
2023/06/21 10:05:54;;;;;;;11.45;4.95;;;;;;;28.23;53.54;93398.72;5107428;28;20056;-76
2023/06/21 10:08:26;;;;;;;10.80;4.63;;;;;;;28.87;52.86;93382.28;5102258;28;20051;-77
2023/06/21 10:10:54;;;;;;;7.53;4.95;;;;;;;29.91;53.03;93407.41;5088754;28;20051;-77
2023/06/21 10:13:27;;;;;;;8.88;4.28;;;;;;;29.94;49.26;93402.25;5094800;28;20040;-77
2023/06/21 10:15:55;;;;;;;6.32;4.32;;;;;;;29.61;49.17;93416.25;5080294;28;20050;-76
2023/06/21 10:18:23;;;;;;;7.63;4.63;;;;;;;29.01;50.17;93414.53;5101866;28;20048;-76
2023/06/21 10:20:54;;;;;;;5.18;3.70;;;;;;;28.92;51.86;93380.22;5081776;28;20041;-76
2023/06/21 10:23:23;;;;;;;5.35;4.00;;;;;;;29.80;53.57;93396.47;5081726;28;20039;-76
2023/06/21 10:25:51;;;;;;;7.25;4.47;;;;;;;30.56;51.50;93398.91;5087639;28;20056;-76
2023/06/21 10:28:19;;;;;;;7.65;3.95;;;;;;;31.07;48.26;93398.53;5088295;28;20041;-76
2023/06/21 10:30:46;;;;;;;7.00;4.35;;;;;;;31.36;47.38;93400.47;5085854;28;20493;-76
2023/06/21 10:33:16;;;;;;;6.57;4.45;;;;;;;31.77;47.46;93389.78;5099925;28;20394;-76
2023/06/21 10:35:48;;;;;;;5.72;3.38;;;;;;;31.96;47.31;93387.28;5085780;28;20052;-76
2023/06/21 10:38:25;;;;;;;6.32;4.35;;;;;;;31.91;44.96;93394.72;5106821;28;20071;-77
2023/06/21 10:40:55;;;;;;;5.93;3.83;;;;;;;31.00;45.29;93398.31;5106675;28;20048;-76
2023/06/21 10:43:22;;;;;;;6.95;4.10;;;;;;;31.50;46.45;93400.84;5095411;28;20052;-76
2023/06/21 10:45:51;;;;;;;7.35;4.32;;;;;;;31.76;48.42;93393.56;5089341;28;20048;-76
2023/06/21 10:48:18;;;;;;;5.22;4.35;;;;;;;30.20;51.11;93405.72;5092636;28;20117;-76
2023/06/21 10:50:47;;;;;;;7.10;4.43;;;;;;;29.59;49.72;93395.44;5083671;28;20097;-76
2023/06/21 10:53:17;;;;;;;6.22;4.22;;;;;;;30.28;50.54;93396.91;5077168;28;20048;-76
2023/06/21 10:55:44;;;;;;;7.95;4.50;;;;;;;30.76;50.91;93396.47;5104737;28;20508;-76
2023/06/21 10:58:13;;;;;;;6.55;5.07;;;;;;;31.33;51.12;93392.06;5091650;28;20505;-76
2023/06/21 11:00:40;;;;;;;7.35;3.78;;;;;;;31.69;47.77;93386.94;5105412;28;20508;-76
2023/06/21 11:03:12;;;;;;;6.63;4.45;;;;;;;32.06;47.49;93395.88;5103013;28;20432;-77
2023/06/21 11:05:40;;;;;;;6.32;4.93;;;;;;;32.39;47.35;93392.06;5097911;28;20505;-76
2023/06/21 11:08:09;;;;;;;5.55;4.28;;;;;;;32.56;44.78;93380.34;5091882;28;20100;-76
2023/06/21 11:10:39;;;;;;;7.13;4.65;;;;;;;33.05;47.98;93394.31;5104607;28;20501;-76
2023/06/21 11:13:07;;;;;;;5.88;4.70;;;;;;;32.36;43.81;93396.19;5110274;28;20125;-76
2023/06/21 11:15:34;;;;;;;6.13;4.40;;;;;;;30.77;46.17;93396.16;5106623;28;20044;-76
2023/06/21 11:18:02;;;;;;;6.75;4.45;;;;;;;31.40;46.66;93393.38;5087175;28;20431;-76
2023/06/21 11:20:32;;;;;;;6.60;4.68;;;;;;;30.47;50.85;93391.06;5085335;28;20048;-76
2023/06/21 11:23:00;;;;;;;7.30;4.95;;;;;;;29.55;50.90;93391.88;5096445;28;20520;-76
2023/06/21 11:25:29;;;;;;;6.45;4.70;;;;;;;29.60;53.00;93388.25;5092434;28;20040;-76
2023/06/21 11:28:24;;;;;;;7.15;4.70;;;;;;;29.97;53.90;93390.22;5110363;28;20044;-76
2023/06/21 11:31:12;;;;;;;5.93;4.22;;;;;;;30.39;50.81;93390.06;5102867;28;20122;-76